Bacolod, Philippines
Current Conditions -  °F | °C
As of 5:00 AM on Monday 24 Nov 2014 (Local Time) from RPVM Reporting Station
Broken Clouds Broken Clouds  
Wind Chill: 81°   Ceiling: 30000
Heat Index: 87°   Visibility: 6mi
Dew Point: 77°   Wind: 7mph
Humidity: 89%   Direction: 350°N
Pressure: 29.8"   Gusts: NA
Location:  10.63°N, 122.97°E
Report Text: RPVM 232100Z 35006KT 9999 SCT020 BKN300 27/25 Q1009 RMK A2980 LOW CLDS OVHD
Loading
Personal Weather Stations






























Interactive Weather Map New forecast layout! Learn more

10-Day Weather Forecast

Advertisements
Track Severe Weather on mobile